Time,TemperatureF,DewpointF,PressureIn,WindDirection,WindDirectionDegrees,WindSpeedMPH,WindSpeedGustMPH,Humidity,HourlyPrecipIn,Conditions,Clouds,dailyrainin,SoftwareType,DateUTC
2013-04-17 00:12:00,39.0,34.0,30.40,North,0,0.0,-999.0,80,-99.99,,,-99.99,,2013-04-17 07:12:00,
2013-04-17 00:22:00,39.0,34.0,30.40,North,0,0.0,-999.0,80,-99.99,,,-99.99,,2013-04-17 07:22:00,
2013-04-17 00:32:00,39.0,34.0,30.40,North,0,0.0,-999.0,80,-99.99,,,-99.99,,2013-04-17 07:32:00,
2013-04-17 00:42:00,37.0,34.0,30.40,North,0,0.0,-999.0,86,-99.99,,,-99.99,,2013-04-17 07:42:00,
2013-04-17 00:52:00,37.0,34.0,30.40,North,0,0.0,-999.0,86,-99.99,,,-99.99,,2013-04-17 07:52:00,
2013-04-17 01:12:00,36.0,34.0,30.41,North,0,0.0,-999.0,93,-99.99,,,-99.99,,2013-04-17 08:12:00,
2013-04-17 01:22:00,36.0,34.0,30.41,North,0,0.0,-999.0,93,-99.99,,,-99.99,,2013-04-17 08:22:00,
2013-04-17 01:32:00,36.0,34.0,30.41,North,0,0.0,-999.0,93,-99.99,,,-99.99,,2013-04-17 08:32:00,
2013-04-17 01:42:00,36.0,32.0,30.42,North,0,0.0,-999.0,86,-99.99,,,-99.99,,2013-04-17 08:42:00,
2013-04-17 01:52:00,36.0,32.0,30.42,North,0,0.0,-999.0,86,-99.99,,,-99.99,,2013-04-17 08:52:00,
2013-04-17 02:12:00,34.0,32.0,30.42,North,0,0.0,-999.0,93,-99.99,,,-99.99,,2013-04-17 09:12:00,
2013-04-17 02:22:00,34.0,32.0,30.42,North,0,0.0,-999.0,93,-99.99,,,-99.99,,2013-04-17 09:22:00,
2013-04-17 02:33:00,34.0,32.0,30.42,North,0,0.0,-999.0,93,-99.99,,,-99.99,,2013-04-17 09:33:00,
2013-04-17 02:42:00,34.0,32.0,30.42,SSW,200,3.0,-999.0,93,-99.99,,,-99.99,,2013-04-17 09:42:00,
2013-04-17 02:52:00,34.0,32.0,30.42,SSW,200,3.0,-999.0,93,-99.99,,,-99.99,,2013-04-17 09:52:00,
2013-04-17 03:12:00,34.0,32.0,30.42,North,0,0.0,-999.0,93,-99.99,,,-99.99,,2013-04-17 10:12:00,
2013-04-17 03:23:00,34.0,32.0,30.42,North,0,0.0,-999.0,93,-99.99,,,-99.99,,2013-04-17 10:23:00,
2013-04-17 03:32:00,34.0,32.0,30.42,North,0,0.0,-999.0,93,-99.99,,,-99.99,,2013-04-17 10:32:00,
2013-04-17 03:42:00,32.0,32.0,30.42,North,0,0.0,-999.0,100,-99.99,,,-99.99,,2013-04-17 10:42:00,
2013-04-17 03:52:00,32.0,32.0,30.42,North,0,0.0,-999.0,100,-99.99,,,-99.99,,2013-04-17 10:52:00,
2013-04-17 04:12:00,32.0,30.0,30.42,North,0,0.0,-999.0,92,-99.99,,,-99.99,,2013-04-17 11:12:00,
2013-04-17 04:22:00,32.0,30.0,30.42,North,0,0.0,-999.0,92,-99.99,,,-99.99,,2013-04-17 11:22:00,
2013-04-17 04:32:00,32.0,30.0,30.42,North,0,0.0,-999.0,92,-99.99,,,-99.99,,2013-04-17 11:32:00,
2013-04-17 04:42:00,30.0,30.0,30.43,North,0,0.0,-999.0,100,-99.99,,,-99.99,,2013-04-17 11:42:00,
2013-04-17 04:52:00,30.0,30.0,30.43,North,0,0.0,-999.0,100,-99.99,,,-99.99,,2013-04-17 11:52:00,
2013-04-17 05:12:00,30.0,30.0,30.44,North,0,0.0,-999.0,100,-99.99,,,-99.99,,2013-04-17 12:12:00,
2013-04-17 05:22:00,30.0,30.0,30.44,North,0,0.0,-999.0,100,-99.99,,,-99.99,,2013-04-17 12:22:00,
2013-04-17 05:32:00,30.0,30.0,30.44,North,0,0.0,-999.0,100,-99.99,,,-99.99,,2013-04-17 12:32:00,
2013-04-17 05:42:00,32.0,30.0,30.44,South,190,3.0,-999.0,92,-99.99,,,-99.99,,2013-04-17 12:42:00,
2013-04-17 05:52:00,32.0,30.0,30.44,South,190,3.0,-999.0,92,-99.99,,,-99.99,,2013-04-17 12:52:00,
2013-04-17 06:12:00,30.0,30.0,30.44,North,0,0.0,-999.0,100,-99.99,,,-99.99,,2013-04-17 13:12:00,
2013-04-17 06:22:00,30.0,30.0,30.44,North,0,0.0,-999.0,100,-99.99,,,-99.99,,2013-04-17 13:22:00,
2013-04-17 06:32:00,30.0,30.0,30.44,North,0,0.0,-999.0,100,-99.99,,,-99.99,,2013-04-17 13:32:00,
2013-04-17 06:52:00,30.0,28.0,30.45,North,0,0.0,-999.0,92,-99.99,,,-99.99,,2013-04-17 13:52:00,
2013-04-17 07:12:00,30.0,28.0,30.46,North,0,0.0,-999.0,92,-99.99,,,-99.99,,2013-04-17 14:12:00,
2013-04-17 07:22:00,30.0,28.0,30.46,North,0,0.0,-999.0,92,-99.99,,,-99.99,,2013-04-17 14:22:00,
2013-04-17 07:32:00,30.0,28.0,30.46,North,0,0.0,-999.0,92,-99.99,,,-99.99,,2013-04-17 14:32:00,
2013-04-17 07:43:00,32.0,30.0,30.47,North,0,0.0,-999.0,92,-99.99,,,-99.99,,2013-04-17 14:43:00,
2013-04-17 07:52:00,32.0,30.0,30.47,North,0,0.0,-999.0,92,-99.99,,,-99.99,,2013-04-17 14:52:00,
2013-04-17 08:02:00,32.0,30.0,30.47,North,0,0.0,-999.0,92,-99.99,,,-99.99,,2013-04-17 15:02:00,
2013-04-17 08:12:00,34.0,32.0,30.47,North,0,0.0,-999.0,93,-99.99,,,-99.99,,2013-04-17 15:12:00,
2013-04-17 08:22:00,34.0,32.0,30.47,North,0,0.0,-999.0,93,-99.99,,,-99.99,,2013-04-17 15:22:00,
2013-04-17 08:33:00,34.0,32.0,30.47,North,0,0.0,-999.0,93,-99.99,,,-99.99,,2013-04-17 15:33:00,
2013-04-17 08:42:00,36.0,32.0,30.48,North,0,0.0,-999.0,86,-99.99,,,-99.99,,2013-04-17 15:42:00,
2013-04-17 08:52:00,36.0,32.0,30.48,North,0,0.0,-999.0,86,-99.99,,,-99.99,,2013-04-17 15:52:00,
2013-04-17 09:12:00,37.0,32.0,30.49,North,0,0.0,-999.0,80,-99.99,,,-99.99,,2013-04-17 16:12:00,
2013-04-17 09:22:00,37.0,32.0,30.49,North,0,0.0,-999.0,80,-99.99,,,-99.99,,2013-04-17 16:22:00,
2013-04-17 09:32:00,37.0,32.0,30.49,North,0,0.0,-999.0,80,-99.99,,,-99.99,,2013-04-17 16:32:00,
2013-04-17 10:12:00,41.0,34.0,30.47,North,0,0.0,-999.0,75,-99.99,,,-99.99,,2013-04-17 17:12:00,
2013-04-17 10:22:00,41.0,34.0,30.47,North,0,0.0,-999.0,75,-99.99,,,-99.99,,2013-04-17 17:22:00,
2013-04-17 10:33:00,41.0,34.0,30.47,North,0,0.0,-999.0,75,-99.99,,,-99.99,,2013-04-17 17:33:00,
2013-04-17 10:42:00,41.0,34.0,30.47,North,0,0.0,-999.0,75,-99.99,,,-99.99,,2013-04-17 17:42:00,
2013-04-17 10:52:00,41.0,34.0,30.47,North,0,0.0,-999.0,75,-99.99,,,-99.99,,2013-04-17 17:52:00,
2013-04-17 11:12:00,45.0,36.0,30.47,North,0,0.0,-999.0,70,-99.99,,,-99.99,,2013-04-17 18:12:00,
2013-04-17 11:22:00,45.0,36.0,30.47,North,0,0.0,-999.0,70,-99.99,,,-99.99,,2013-04-17 18:22:00,
2013-04-17 11:32:00,45.0,36.0,30.47,North,0,0.0,-999.0,70,-99.99,,,-99.99,,2013-04-17 18:32:00,
2013-04-17 11:42:00,46.0,36.0,30.46,SE,130,3.0,-999.0,65,-99.99,,,-99.99,,2013-04-17 18:42:00,
2013-04-17 11:52:00,46.0,36.0,30.46,SE,130,3.0,-999.0,65,-99.99,,,-99.99,,2013-04-17 18:52:00,
2013-04-17 12:12:00,50.0,37.0,30.45,ENE,70,3.0,-999.0,61,-99.99,,,-99.99,,2013-04-17 19:12:00,
2013-04-17 12:22:00,50.0,37.0,30.45,ENE,70,3.0,-999.0,61,-99.99,,,-99.99,,2013-04-17 19:22:00,
2013-04-17 12:32:00,50.0,37.0,30.45,ENE,70,3.0,-999.0,61,-99.99,,,-99.99,,2013-04-17 19:32:00,
2013-04-17 12:42:00,55.0,36.0,30.44,NW,310,7.0,-999.0,47,-99.99,,,-99.99,,2013-04-17 19:42:00,
2013-04-17 12:52:00,55.0,36.0,30.44,NW,310,7.0,-999.0,47,-99.99,,,-99.99,,2013-04-17 19:52:00,
2013-04-17 13:02:00,55.0,36.0,30.44,NW,310,7.0,-999.0,47,-99.99,,,-99.99,,2013-04-17 20:02:00,
2013-04-17 13:12:00,55.0,34.0,30.44,WNW,290,9.0,17.0,43,-99.99,,,-99.99,,2013-04-17 20:12:00,
2013-04-17 13:22:00,55.0,34.0,30.44,WNW,290,9.0,17.0,43,-99.99,,,-99.99,,2013-04-17 20:22:00,
2013-04-17 13:32:00,55.0,34.0,30.44,WNW,290,9.0,17.0,43,-99.99,,,-99.99,,2013-04-17 20:32:00,
2013-04-17 13:42:00,57.0,34.0,30.42,WNW,290,8.0,-999.0,41,-99.99,,,-99.99,,2013-04-17 20:42:00,
2013-04-17 13:52:00,57.0,34.0,30.42,WNW,290,8.0,-999.0,41,-99.99,,,-99.99,,2013-04-17 20:52:00,
2013-04-17 14:12:00,57.0,32.0,30.42,WNW,290,10.0,18.0,38,-99.99,,,-99.99,,2013-04-17 21:12:00,
2013-04-17 14:22:00,57.0,32.0,30.42,WNW,290,10.0,18.0,38,-99.99,,,-99.99,,2013-04-17 21:22:00,
2013-04-17 14:32:00,57.0,32.0,30.42,WNW,290,10.0,18.0,38,-99.99,,,-99.99,,2013-04-17 21:32:00,
2013-04-17 14:42:00,59.0,30.0,30.41,West,280,8.0,16.0,33,-99.99,,,-99.99,,2013-04-17 21:42:00,
2013-04-17 14:53:00,59.0,30.0,30.41,West,280,8.0,16.0,33,-99.99,,,-99.99,,2013-04-17 21:53:00,
2013-04-17 15:12:00,59.0,30.0,30.40,West,270,6.0,-999.0,33,-99.99,,,-99.99,,2013-04-17 22:12:00,
2013-04-17 15:22:00,59.0,30.0,30.40,West,270,6.0,-999.0,33,-99.99,,,-99.99,,2013-04-17 22:22:00,
2013-04-17 15:33:00,59.0,30.0,30.40,West,270,6.0,-999.0,33,-99.99,,,-99.99,,2013-04-17 22:33:00,
2013-04-17 15:42:00,57.0,30.0,30.40,WNW,300,14.0,18.0,35,-99.99,,,-99.99,,2013-04-17 22:42:00,
2013-04-17 15:52:00,57.0,30.0,30.40,WNW,300,14.0,18.0,35,-99.99,,,-99.99,,2013-04-17 22:52:00,
2013-04-17 16:12:00,61.0,34.0,30.39,WNW,290,5.0,-999.0,36,-99.99,,,-99.99,,2013-04-17 23:12:00,
2013-04-17 16:22:00,61.0,34.0,30.39,WNW,290,5.0,-999.0,36,-99.99,,,-99.99,,2013-04-17 23:22:00,
2013-04-17 16:32:00,61.0,34.0,30.39,WNW,290,5.0,-999.0,36,-99.99,,,-99.99,,2013-04-17 23:32:00,
2013-04-17 16:42:00,59.0,32.0,30.39,WNW,290,10.0,20.0,35,-99.99,,,-99.99,,2013-04-17 23:42:00,
2013-04-17 16:52:00,59.0,32.0,30.39,WNW,290,10.0,20.0,35,-99.99,,,-99.99,,2013-04-17 23:52:00,
2013-04-17 17:12:00,55.0,32.0,30.39,WNW,300,14.0,-999.0,40,-99.99,,,-99.99,,2013-04-18 00:12:00,
2013-04-17 17:22:00,55.0,32.0,30.39,WNW,300,14.0,-999.0,40,-99.99,,,-99.99,,2013-04-18 00:22:00,
2013-04-17 17:32:00,55.0,32.0,30.39,WNW,300,14.0,-999.0,40,-99.99,,,-99.99,,2013-04-18 00:32:00,
2013-04-17 17:42:00,55.0,32.0,30.39,WNW,290,10.0,18.0,40,-99.99,,,-99.99,,2013-04-18 00:42:00,
2013-04-17 17:52:00,55.0,32.0,30.39,WNW,290,10.0,18.0,40,-99.99,,,-99.99,,2013-04-18 00:52:00,
2013-04-17 18:12:00,55.0,32.0,30.38,WNW,290,9.0,20.0,40,-99.99,,,-99.99,,2013-04-18 01:12:00,
2013-04-17 18:22:00,55.0,32.0,30.38,WNW,290,9.0,20.0,40,-99.99,,,-99.99,,2013-04-18 01:22:00,
2013-04-17 18:32:00,55.0,32.0,30.38,WNW,290,9.0,20.0,40,-99.99,,,-99.99,,2013-04-18 01:32:00,
2013-04-17 18:42:00,55.0,32.0,30.38,WNW,290,6.0,-999.0,40,-99.99,,,-99.99,,2013-04-18 01:42:00,
2013-04-17 18:52:00,55.0,32.0,30.38,WNW,290,6.0,-999.0,40,-99.99,,,-99.99,,2013-04-18 01:52:00,
2013-04-17 19:12:00,54.0,32.0,30.39,SW,230,3.0,-999.0,43,-99.99,,,-99.99,,2013-04-18 02:12:00,
2013-04-17 19:22:00,54.0,32.0,30.39,SW,230,3.0,-999.0,43,-99.99,,,-99.99,,2013-04-18 02:22:00,
2013-04-17 19:32:00,54.0,32.0,30.39,SW,230,3.0,-999.0,43,-99.99,,,-99.99,,2013-04-18 02:32:00,
2013-04-17 20:12:00,52.0,34.0,30.39,North,0,0.0,-999.0,50,-99.99,,,-99.99,,2013-04-18 03:12:00,
2013-04-17 20:22:00,52.0,34.0,30.39,North,0,0.0,-999.0,50,-99.99,,,-99.99,,2013-04-18 03:22:00,
2013-04-17 20:33:00,52.0,34.0,30.39,North,0,0.0,-999.0,50,-99.99,,,-99.99,,2013-04-18 03:33:00,
2013-04-17 20:43:00,52.0,34.0,30.39,West,260,3.0,-999.0,50,-99.99,,,-99.99,,2013-04-18 03:43:00,
2013-04-17 20:53:00,52.0,34.0,30.39,West,260,3.0,-999.0,50,-99.99,,,-99.99,,2013-04-18 03:53:00,
2013-04-17 21:13:00,52.0,36.0,30.40,West,280,5.0,-999.0,53,-99.99,,,-99.99,,2013-04-18 04:13:00,
2013-04-17 21:23:00,52.0,36.0,30.40,West,280,5.0,-999.0,53,-99.99,,,-99.99,,2013-04-18 04:23:00,
2013-04-17 21:33:00,52.0,36.0,30.40,West,280,5.0,-999.0,53,-99.99,,,-99.99,,2013-04-18 04:33:00,
2013-04-17 21:43:00,52.0,36.0,30.40,West,280,5.0,-999.0,53,-99.99,,,-99.99,,2013-04-18 04:43:00,
2013-04-17 21:52:00,52.0,36.0,30.40,West,280,5.0,-999.0,53,-99.99,,,-99.99,,2013-04-18 04:52:00,
2013-04-17 22:12:00,52.0,36.0,30.41,West,270,3.0,-999.0,53,-99.99,,,-99.99,,2013-04-18 05:12:00,
2013-04-17 22:22:00,52.0,36.0,30.41,West,270,3.0,-999.0,53,-99.99,,,-99.99,,2013-04-18 05:22:00,
2013-04-17 22:32:00,52.0,36.0,30.41,West,270,3.0,-999.0,53,-99.99,,,-99.99,,2013-04-18 05:32:00,
2013-04-17 22:42:00,50.0,36.0,30.41,SSW,210,7.0,-999.0,57,-99.99,,,-99.99,,2013-04-18 05:42:00,
2013-04-17 22:52:00,50.0,36.0,30.41,SSW,210,7.0,-999.0,57,-99.99,,,-99.99,,2013-04-18 05:52:00,
2013-04-17 23:12:00,50.0,36.0,30.40,SW,220,8.0,-999.0,57,-99.99,,,-99.99,,2013-04-18 06:12:00,
2013-04-17 23:22:00,50.0,36.0,30.40,SW,220,8.0,-999.0,57,-99.99,,,-99.99,,2013-04-18 06:22:00,
2013-04-17 23:32:00,50.0,36.0,30.40,SW,220,8.0,-999.0,57,-99.99,,,-99.99,,2013-04-18 06:32:00,
2013-04-17 23:42:00,50.0,37.0,30.40,South,190,5.0,-999.0,61,-99.99,,,-99.99,,2013-04-18 06:42:00,
2013-04-17 23:52:00,50.0,37.0,30.40,South,190,5.0,-999.0,61,-99.99,,,-99.99,,2013-04-18 06:52:00,